Time;durP1;ratioP1;P1;durP2;ratioP2;P2;SDS_P1;SDS_P2;PMS_P1;PMS_P2;Temp;Humidity;BMP_temperature;BMP_pressure;BME280_temperature;BME280_humidity;BME280_pressure;Samples;Min_cycle;Max_cycle;Signal;HPM_P1;HPM_P2
2024/01/17 00:00:19;;;;;;;16.70;15.00;;;-0.20;99.90;;;;;;5095757;28;20521;-77
2024/01/17 00:02:48;;;;;;;16.80;15.20;;;-0.20;99.90;;;;;;5096373;28;20813;-77
2024/01/17 00:05:16;;;;;;;19.67;17.63;;;-0.20;99.90;;;;;;5095989;28;20437;-77
2024/01/17 00:07:44;;;;;;;16.87;15.27;;;-0.20;99.90;;;;;;5097064;28;20445;-77
2024/01/17 00:10:13;;;;;;;18.07;16.33;;;-0.20;99.90;;;;;;5096145;28;20455;-78
2024/01/17 00:12:41;;;;;;;17.33;14.50;;;-0.20;99.90;;;;;;5096753;28;20460;-78
2024/01/17 00:15:12;;;;;;;17.57;15.77;;;-0.20;99.90;;;;;;5095827;28;21044;-77
2024/01/17 00:17:40;;;;;;;17.60;15.70;;;-0.20;99.90;;;;;;5096082;28;20441;-77
2024/01/17 00:20:09;;;;;;;16.40;14.90;;;-0.20;99.90;;;;;;5094902;28;20445;-77
2024/01/17 00:22:37;;;;;;;16.37;14.57;;;-0.20;99.90;;;;;;5095299;28;20886;-77
2024/01/17 00:25:08;;;;;;;19.27;14.13;;;-0.20;99.90;;;;;;5096381;28;20507;-77
2024/01/17 00:27:37;;;;;;;14.67;13.30;;;-0.20;99.90;;;;;;5095386;28;20439;-77
2024/01/17 00:30:06;;;;;;;18.73;14.80;;;-0.20;99.90;;;;;;5094696;28;20516;-77
2024/01/17 00:32:36;;;;;;;16.20;14.57;;;-0.30;99.90;;;;;;5094161;28;20452;-77
2024/01/17 00:35:05;;;;;;;17.83;16.23;;;-0.30;99.90;;;;;;5094427;28;20482;-77
2024/01/17 00:37:38;;;;;;;16.00;14.60;;;-0.30;99.90;;;;;;5095721;28;20421;-77
2024/01/17 00:40:06;;;;;;;16.63;15.03;;;-0.30;99.90;;;;;;5092326;28;20452;-76
2024/01/17 00:42:34;;;;;;;16.80;15.13;;;-0.30;99.90;;;;;;5092364;28;20464;-77
2024/01/17 00:45:04;;;;;;;17.93;14.83;;;-0.30;99.90;;;;;;5093511;28;20522;-77
2024/01/17 00:47:32;;;;;;;16.10;14.50;;;-0.40;99.90;;;;;;5092126;28;20448;-77
2024/01/17 00:50:03;;;;;;;16.97;15.10;;;-0.40;99.90;;;;;;5092291;28;20445;-77
2024/01/17 00:52:31;;;;;;;15.90;14.30;;;-0.40;99.90;;;;;;5093519;28;20467;-77
2024/01/17 00:54:59;;;;;;;16.83;15.33;;;-0.40;99.90;;;;;;5092191;28;20436;-77
2024/01/17 00:57:28;;;;;;;21.40;15.33;;;-0.50;99.90;;;;;;5092181;28;20458;-77
2024/01/17 00:59:56;;;;;;;15.93;14.33;;;-0.50;99.90;;;;;;5093409;28;20447;-76
2024/01/17 01:02:24;;;;;;;17.27;15.73;;;-0.50;99.90;;;;;;5092007;28;20545;-77
2024/01/17 01:04:53;;;;;;;17.20;15.60;;;-0.50;99.90;;;;;;5093230;28;20618;-77
2024/01/17 01:07:22;;;;;;;18.47;16.57;;;-0.50;99.90;;;;;;5092105;28;20479;-77
2024/01/17 01:09:51;;;;;;;17.00;15.20;;;-0.60;99.90;;;;;;5093284;28;20803;-77
2024/01/17 01:12:23;;;;;;;17.47;15.70;;;-0.60;99.90;;;;;;5093330;28;20457;-77
2024/01/17 01:14:51;;;;;;;17.73;15.93;;;-0.60;99.90;;;;;;5091941;28;20967;-77
2024/01/17 01:17:20;;;;;;;19.07;17.47;;;-0.60;99.90;;;;;;5092048;28;21004;-77
2024/01/17 01:19:48;;;;;;;16.47;15.03;;;-0.60;99.90;;;;;;5093334;28;20531;-77
2024/01/17 01:22:16;;;;;;;18.20;16.60;;;-0.60;99.90;;;;;;5091852;28;20468;-77
2024/01/17 01:24:46;;;;;;;17.97;16.20;;;-0.60;99.90;;;;;;5093275;28;20461;-76
2024/01/17 01:27:14;;;;;;;17.23;15.43;;;-0.70;99.90;;;;;;5093616;28;20493;-77
2024/01/17 01:29:43;;;;;;;18.27;15.37;;;-0.70;99.90;;;;;;5091934;28;20452;-76
2024/01/17 01:32:11;;;;;;;17.17;15.37;;;-0.70;99.90;;;;;;5091842;28;20547;-77
2024/01/17 01:34:39;;;;;;;19.03;14.47;;;-0.70;99.90;;;;;;5091954;28;20452;-77
2024/01/17 01:37:08;;;;;;;17.60;15.80;;;-0.70;99.90;;;;;;5091962;28;20448;-77
2024/01/17 01:39:36;;;;;;;19.50;17.17;;;-0.70;99.90;;;;;;5093008;28;20475;-77
2024/01/17 01:42:06;;;;;;;17.40;15.80;;;-0.70;99.90;;;;;;5093107;28;20482;-77
2024/01/17 01:44:34;;;;;;;17.03;15.37;;;-0.60;99.90;;;;;;5091829;28;20468;-77
2024/01/17 01:47:03;;;;;;;17.50;15.80;;;-0.70;99.90;;;;;;5092887;28;20491;-77
2024/01/17 01:49:31;;;;;;;19.50;16.80;;;-0.70;99.90;;;;;;5091760;28;20543;-77
2024/01/17 01:52:00;;;;;;;19.77;16.53;;;-0.70;99.90;;;;;;5094193;28;20452;-77
2024/01/17 01:54:29;;;;;;;16.23;14.83;;;-0.70;99.90;;;;;;5095238;28;20490;-77
2024/01/17 01:56:59;;;;;;;18.23;16.47;;;-0.70;99.90;;;;;;5092637;28;20448;-77
2024/01/17 01:59:28;;;;;;;18.97;15.23;;;-0.70;99.90;;;;;;5094498;28;20489;-77
2024/01/17 02:01:58;;;;;;;16.90;15.20;;;-0.70;99.90;;;;;;5092302;28;20477;-77
2024/01/17 02:04:28;;;;;;;17.67;15.97;;;-0.70;99.90;;;;;;5092289;28;20464;-77
2024/01/17 02:07:01;;;;;;;19.97;17.13;;;-0.70;99.90;;;;;;5091995;28;20937;-77
2024/01/17 02:09:30;;;;;;;19.43;17.27;;;-0.70;99.90;;;;;;5091895;28;20939;-77
2024/01/17 02:11:58;;;;;;;19.03;16.80;;;-0.60;99.90;;;;;;5093766;28;20529;-77
2024/01/17 02:14:28;;;;;;;14.93;13.53;;;-0.60;99.90;;;;;;5095388;28;20444;-77
2024/01/17 02:16:56;;;;;;;19.27;17.37;;;-0.60;99.90;;;;;;5095236;28;20448;-76
2024/01/17 02:19:26;;;;;;;19.03;15.93;;;-0.60;99.90;;;;;;5095342;28;20488;-77
2024/01/17 02:21:54;;;;;;;19.17;17.13;;;-0.60;99.90;;;;;;5096413;28;20453;-77
2024/01/17 02:24:24;;;;;;;18.23;16.33;;;-0.60;99.90;;;;;;5095038;28;20468;-77
2024/01/17 02:26:52;;;;;;;20.83;18.67;;;-0.60;99.90;;;;;;5095004;28;20444;-77
2024/01/17 02:29:20;;;;;;;20.50;18.37;;;-0.60;99.90;;;;;;5094881;28;20535;-77
2024/01/17 02:31:49;;;;;;;19.00;17.10;;;-0.60;99.90;;;;;;5094817;28;20468;-77
2024/01/17 02:34:17;;;;;;;18.67;16.97;;;-0.60;99.90;;;;;;5096089;28;20428;-76
2024/01/17 02:36:46;;;;;;;19.17;17.17;;;-0.60;99.90;;;;;;5094816;28;20452;-77
2024/01/17 02:39:15;;;;;;;17.83;16.23;;;-0.60;99.90;;;;;;5096535;28;20486;-77
2024/01/17 02:41:45;;;;;;;15.87;14.30;;;-0.60;99.90;;;;;;5095967;28;20862;-77
2024/01/17 02:44:13;;;;;;;26.93;17.30;;;-0.60;99.90;;;;;;5094616;28;20440;-77
2024/01/17 02:46:41;;;;;;;19.80;17.80;;;-0.60;99.90;;;;;;5096381;28;20443;-77
2024/01/17 02:49:14;;;;;;;17.70;16.00;;;-0.60;99.90;;;;;;5094940;28;20474;-77
2024/01/17 02:51:42;;;;;;;18.97;17.07;;;-0.50;99.90;;;;;;5094477;28;20456;-77
2024/01/17 02:54:11;;;;;;;20.70;17.70;;;-0.60;99.90;;;;;;5094460;28;20459;-77
2024/01/17 02:56:39;;;;;;;18.77;16.50;;;-0.60;99.90;;;;;;5094420;28;20509;-76
2024/01/17 02:59:09;;;;;;;18.20;16.47;;;-0.60;99.90;;;;;;5095843;28;20444;-77
2024/01/17 03:01:37;;;;;;;19.57;17.63;;;-0.60;99.90;;;;;;5094342;28;20488;-77
2024/01/17 03:04:05;;;;;;;18.60;16.70;;;-0.60;99.90;;;;;;5094219;28;20945;-76
2024/01/17 03:06:33;;;;;;;19.10;17.10;;;-0.50;99.90;;;;;;5094602;28;20571;-77
2024/01/17 03:09:02;;;;;;;18.70;16.77;;;-0.60;99.90;;;;;;5095686;28;20786;-76
2024/01/17 03:11:32;;;;;;;19.00;17.13;;;-0.50;99.90;;;;;;5095867;28;20472;-77
2024/01/17 03:14:01;;;;;;;18.03;16.20;;;-0.50;99.90;;;;;;5095244;28;20436;-77
2024/01/17 03:16:30;;;;;;;20.90;18.83;;;-0.50;99.90;;;;;;5093938;28;20455;-77
2024/01/17 03:18:58;;;;;;;20.10;17.30;;;-0.50;99.90;;;;;;5095198;28;20432;-77
2024/01/17 03:21:27;;;;;;;18.67;16.63;;;-0.50;99.90;;;;;;5095155;28;20466;-76
2024/01/17 03:23:55;;;;;;;18.10;16.17;;;-0.50;99.90;;;;;;5093699;28;20525;-76
2024/01/17 03:26:24;;;;;;;18.57;16.23;;;-0.50;99.90;;;;;;5093674;28;20555;-76
2024/01/17 03:28:52;;;;;;;18.20;16.60;;;-0.50;99.90;;;;;;5093644;28;20451;-77
2024/01/17 03:31:20;;;;;;;20.30;18.30;;;-0.50;99.90;;;;;;5093773;28;20859;-77
2024/01/17 03:33:50;;;;;;;17.57;15.87;;;-0.50;99.90;;;;;;5093554;28;20539;-77
2024/01/17 03:36:18;;;;;;;18.83;17.13;;;-0.40;99.90;;;;;;5093518;28;20452;-77
2024/01/17 03:38:46;;;;;;;16.77;15.07;;;-0.40;99.90;;;;;;5093600;28;20878;-76
2024/01/17 03:41:15;;;;;;;18.73;16.83;;;-0.40;99.90;;;;;;5093393;28;20541;-77
2024/01/17 03:43:43;;;;;;;17.87;16.00;;;-0.40;99.90;;;;;;5093427;28;20479;-77
2024/01/17 03:46:12;;;;;;;19.57;17.80;;;-0.40;99.90;;;;;;5094493;28;20570;-77
2024/01/17 03:48:40;;;;;;;17.97;15.90;;;-0.40;99.90;;;;;;5093322;28;20502;-77
2024/01/17 03:51:10;;;;;;;19.90;16.80;;;-0.40;99.90;;;;;;5094515;28;20464;-77
2024/01/17 03:53:38;;;;;;;20.43;18.43;;;-0.40;99.90;;;;;;5093378;28;20536;-77
2024/01/17 03:56:07;;;;;;;19.30;17.50;;;-0.40;99.90;;;;;;5093163;28;20449;-76
2024/01/17 03:58:35;;;;;;;18.30;16.40;;;-0.40;99.90;;;;;;5094418;28;20458;-77
2024/01/17 04:01:04;;;;;;;17.27;15.53;;;-0.40;99.90;;;;;;5094268;28;20499;-76
2024/01/17 04:03:32;;;;;;;17.70;16.20;;;-0.40;99.90;;;;;;5093107;28;20428;-76
2024/01/17 04:06:00;;;;;;;18.77;17.13;;;-0.40;99.90;;;;;;5092975;28;20507;-76
2024/01/17 04:08:30;;;;;;;18.20;16.43;;;-0.40;99.90;;;;;;5092931;28;20436;-77
2024/01/17 04:10:59;;;;;;;18.00;16.20;;;-0.40;99.90;;;;;;5092893;28;20997;-76
2024/01/17 04:13:27;;;;;;;19.27;16.90;;;-0.40;99.90;;;;;;5092899;28;20436;-77
2024/01/17 04:15:55;;;;;;;18.27;15.50;;;-0.40;99.90;;;;;;5093112;28;20555;-77
2024/01/17 04:18:23;;;;;;;18.20;16.50;;;-0.40;99.90;;;;;;5092777;28;20447;-76
2024/01/17 04:20:52;;;;;;;16.87;15.40;;;-0.40;99.90;;;;;;5092723;28;20507;-77
2024/01/17 04:23:20;;;;;;;18.30;16.37;;;-0.40;99.90;;;;;;5092915;28;20445;-76
2024/01/17 04:25:49;;;;;;;17.00;15.60;;;-0.40;99.90;;;;;;5094219;28;20486;-77
2024/01/17 04:28:18;;;;;;;18.50;16.60;;;-0.40;99.90;;;;;;5092667;28;20440;-77
2024/01/17 04:30:46;;;;;;;17.27;14.70;;;-0.40;99.90;;;;;;5093997;28;20513;-77
2024/01/17 04:33:14;;;;;;;18.93;16.20;;;-0.40;99.90;;;;;;5093732;28;20925;-76
2024/01/17 04:35:43;;;;;;;17.20;15.40;;;-0.40;99.90;;;;;;5092231;28;20456;-77
2024/01/17 04:38:11;;;;;;;17.10;15.50;;;-0.40;99.90;;;;;;5092657;28;20448;-77
2024/01/17 04:40:39;;;;;;;17.57;15.97;;;-0.40;99.90;;;;;;5092403;28;20436;-77
2024/01/17 04:43:09;;;;;;;17.60;15.90;;;-0.40;99.90;;;;;;5092568;28;20440;-77
2024/01/17 04:45:37;;;;;;;17.80;15.90;;;-0.40;99.90;;;;;;5092432;28;20472;-76
2024/01/17 04:48:07;;;;;;;16.70;15.10;;;-0.40;99.90;;;;;;5093524;28;20482;-76
2024/01/17 04:50:36;;;;;;;16.07;14.73;;;-0.40;99.90;;;;;;5092337;28;20437;-77
2024/01/17 04:53:04;;;;;;;16.53;14.83;;;-0.40;99.90;;;;;;5092421;28;20479;-77
2024/01/17 04:55:33;;;;;;;16.53;15.13;;;-0.40;99.90;;;;;;5092295;28;20551;-76
2024/01/17 04:58:01;;;;;;;17.77;16.03;;;-0.40;99.90;;;;;;5092288;28;20471;-77
2024/01/17 05:00:31;;;;;;;16.00;14.33;;;-0.40;99.90;;;;;;5092402;28;20551;-77
2024/01/17 05:02:59;;;;;;;15.50;14.10;;;-0.40;99.90;;;;;;5092334;28;20448;-77
2024/01/17 05:05:27;;;;;;;16.50;14.30;;;-0.40;99.90;;;;;;5092197;28;20543;-77
2024/01/17 05:07:56;;;;;;;15.10;13.67;;;-0.40;99.90;;;;;;5092519;28;20544;-77
2024/01/17 05:10:24;;;;;;;15.40;13.97;;;-0.40;99.90;;;;;;5092305;28;20500;-77
2024/01/17 05:12:52;;;;;;;14.50;13.10;;;-0.40;99.90;;;;;;5092659;28;20448;-77
2024/01/17 05:15:21;;;;;;;13.90;12.60;;;-0.40;99.90;;;;;;5092404;28;20519;-77
2024/01/17 05:17:50;;;;;;;14.27;13.00;;;-0.40;99.90;;;;;;5093508;28;20525;-77
2024/01/17 05:20:19;;;;;;;16.63;13.90;;;-0.40;99.90;;;;;;5093774;28;20478;-77
2024/01/17 05:22:47;;;;;;;16.57;13.30;;;-0.40;99.90;;;;;;5093726;28;20473;-77
2024/01/17 05:25:15;;;;;;;15.73;13.87;;;-0.40;99.90;;;;;;5092206;28;20501;-77
2024/01/17 05:27:50;;;;;;;16.47;13.80;;;-0.40;99.90;;;;;;5093696;28;21049;-77
2024/01/17 05:30:18;;;;;;;15.57;13.63;;;-0.50;99.90;;;;;;5093382;28;20416;-77
2024/01/17 05:32:47;;;;;;;15.83;14.23;;;-0.50;99.90;;;;;;5092357;28;20495;-77
2024/01/17 05:35:17;;;;;;;14.60;13.13;;;-0.50;99.90;;;;;;5093539;28;20447;-77
2024/01/17 05:37:46;;;;;;;14.77;13.27;;;-0.50;99.90;;;;;;5092115;28;20442;-77
2024/01/17 05:40:15;;;;;;;14.90;13.47;;;-0.50;99.90;;;;;;5092234;28;20440;-77
2024/01/17 05:42:45;;;;;;;15.30;13.80;;;-0.50;99.90;;;;;;5092563;28;20473;-77
2024/01/17 05:45:13;;;;;;;15.57;13.63;;;-0.50;99.90;;;;;;5093962;28;20878;-77
2024/01/17 05:47:41;;;;;;;14.07;12.70;;;-0.50;99.90;;;;;;5095201;28;20483;-77
2024/01/17 05:50:11;;;;;;;15.47;14.00;;;-0.50;99.90;;;;;;5096152;28;20448;-77
2024/01/17 05:52:42;;;;;;;14.43;13.03;;;-0.50;99.90;;;;;;5097200;28;20510;-77
2024/01/17 05:55:12;;;;;;;15.07;13.47;;;-0.50;99.90;;;;;;5096031;28;20451;-77
2024/01/17 05:57:40;;;;;;;15.40;13.53;;;-0.60;99.90;;;;;;5095819;28;20440;-77
2024/01/17 06:00:11;;;;;;;17.97;14.97;;;-0.60;99.90;;;;;;5095777;28;20452;-77
2024/01/17 06:02:40;;;;;;;15.17;13.60;;;-0.60;99.90;;;;;;5097412;28;20462;-77
2024/01/17 06:05:09;;;;;;;16.43;14.67;;;-0.60;99.90;;;;;;5095846;28;20960;-77
2024/01/17 06:07:38;;;;;;;15.03;13.43;;;-0.60;99.90;;;;;;5095740;28;20467;-77
2024/01/17 06:10:12;;;;;;;20.20;14.87;;;-0.60;99.90;;;;;;5095884;28;20822;-77
2024/01/17 06:12:41;;;;;;;14.60;13.17;;;-0.60;99.90;;;;;;5095518;28;20471;-77
2024/01/17 06:15:11;;;;;;;15.13;13.63;;;-0.60;99.90;;;;;;5095515;28;20502;-76
2024/01/17 06:17:40;;;;;;;14.27;12.93;;;-0.60;99.90;;;;;;5097297;28;20816;-77
2024/01/17 06:20:09;;;;;;;15.30;13.90;;;-0.60;99.90;;;;;;5095357;28;20455;-77
2024/01/17 06:22:38;;;;;;;16.00;13.77;;;-0.60;99.90;;;;;;5095454;28;20468;-76
2024/01/17 06:25:09;;;;;;;15.80;13.03;;;-0.60;99.90;;;;;;5095372;28;20933;-76
2024/01/17 06:27:37;;;;;;;17.37;14.47;;;-0.60;99.90;;;;;;5094809;28;20468;-76
2024/01/17 06:30:06;;;;;;;14.20;12.80;;;-0.60;99.90;;;;;;5094893;28;20444;-76
2024/01/17 06:32:36;;;;;;;14.97;13.60;;;-0.60;99.90;;;;;;5096095;28;20452;-77
2024/01/17 06:35:05;;;;;;;15.10;13.47;;;-0.70;99.90;;;;;;5095972;28;20842;-77
2024/01/17 06:37:33;;;;;;;14.43;13.00;;;-0.70;99.90;;;;;;5094667;28;20436;-77
2024/01/17 06:40:01;;;;;;;16.53;14.03;;;-0.60;99.90;;;;;;5094627;28;20448;-77
2024/01/17 06:42:31;;;;;;;13.30;12.00;;;-0.60;99.90;;;;;;5094473;28;20456;-76
2024/01/17 06:44:59;;;;;;;12.80;11.50;;;-0.60;99.90;;;;;;5096069;28;20437;-77
2024/01/17 06:47:27;;;;;;;14.27;12.77;;;-0.70;99.90;;;;;;5094431;28;20476;-77
2024/01/17 06:49:56;;;;;;;15.10;13.40;;;-0.70;99.90;;;;;;5095859;28;20441;-77
2024/01/17 06:52:24;;;;;;;16.20;14.30;;;-0.70;99.90;;;;;;5094635;28;20472;-76
2024/01/17 06:54:53;;;;;;;15.90;14.20;;;-0.70;99.90;;;;;;5095956;28;20436;-76
2024/01/17 06:57:22;;;;;;;15.20;13.60;;;-0.70;99.90;;;;;;5095302;28;20428;-76
2024/01/17 06:59:52;;;;;;;15.00;13.37;;;-0.70;99.90;;;;;;5094352;28;20475;-76
2024/01/17 07:02:20;;;;;;;15.07;13.67;;;-0.70;99.90;;;;;;5096352;28;20460;-76
2024/01/17 07:04:49;;;;;;;15.03;13.60;;;-0.70;99.90;;;;;;5094602;28;21055;-75
2024/01/17 07:07:17;;;;;;;16.87;14.00;;;-0.70;99.90;;;;;;5095812;28;20467;-76
2024/01/17 07:09:45;;;;;;;16.17;14.33;;;-0.70;99.90;;;;;;5094447;28;20439;-76
2024/01/17 07:12:13;;;;;;;16.20;14.73;;;-0.70;99.90;;;;;;5094085;28;20907;-76
2024/01/17 07:14:43;;;;;;;16.47;14.90;;;-0.70;99.90;;;;;;5094868;28;20439;-75
2024/01/17 07:17:12;;;;;;;15.40;13.70;;;-0.70;99.90;;;;;;5093934;28;20448;-76
2024/01/17 07:19:41;;;;;;;20.63;14.10;;;-0.70;99.90;;;;;;5093813;28;20444;-76
2024/01/17 07:22:09;;;;;;;16.87;15.20;;;-0.70;99.90;;;;;;5093821;28;20476;-76
2024/01/17 07:24:37;;;;;;;15.33;13.83;;;-0.70;99.90;;;;;;5095006;28;20436;-76
2024/01/17 07:27:06;;;;;;;16.07;13.27;;;-0.70;99.90;;;;;;5093668;28;20500;-75
2024/01/17 07:29:35;;;;;;;15.43;13.93;;;-0.70;99.90;;;;;;5094916;28;20949;-76
2024/01/17 07:32:03;;;;;;;14.23;12.73;;;-0.80;99.90;;;;;;5095085;28;20467;-76
2024/01/17 07:34:33;;;;;;;16.60;14.93;;;-0.80;99.90;;;;;;5095380;28;20447;-76
2024/01/17 07:37:02;;;;;;;16.47;14.90;;;-0.80;99.90;;;;;;5094862;28;20420;-76
2024/01/17 07:39:30;;;;;;;14.80;13.20;;;-0.80;99.90;;;;;;5093717;28;20455;-76
2024/01/17 07:41:58;;;;;;;14.47;13.07;;;-0.80;99.90;;;;;;5093349;28;20522;-76
2024/01/17 07:44:29;;;;;;;16.73;13.30;;;-0.80;99.90;;;;;;5093369;28;20443;-75
2024/01/17 07:46:58;;;;;;;14.67;11.43;;;-0.80;99.90;;;;;;5093142;28;20830;-76
2024/01/17 07:49:26;;;;;;;13.57;12.17;;;-0.80;99.90;;;;;;5093360;28;20440;-76
2024/01/17 07:51:56;;;;;;;17.87;13.83;;;-0.80;99.90;;;;;;5093164;28;20862;-76
2024/01/17 07:54:24;;;;;;;13.43;12.13;;;-0.80;99.90;;;;;;5093173;28;20440;-75
2024/01/17 07:56:53;;;;;;;13.30;12.00;;;-0.80;99.90;;;;;;5093199;28;20505;-75
2024/01/17 07:59:21;;;;;;;14.27;12.77;;;-0.80;99.90;;;;;;5093264;28;20976;-76
2024/01/17 08:01:49;;;;;;;13.27;11.97;;;-0.80;99.90;;;;;;5092971;28;20471;-76
2024/01/17 08:04:18;;;;;;;16.50;12.50;;;-0.80;99.90;;;;;;5094831;28;20838;-76
2024/01/17 08:06:46;;;;;;;14.33;12.83;;;-0.80;99.90;;;;;;5094207;28;20439;-76
2024/01/17 08:09:21;;;;;;;12.40;11.10;;;-0.80;99.90;;;;;;5093592;28;20887;-76
2024/01/17 08:11:50;;;;;;;13.23;11.40;;;-0.80;99.90;;;;;;5092832;28;20562;-76
2024/01/17 08:14:19;;;;;;;14.70;12.17;;;-0.80;99.90;;;;;;5092915;28;20509;-76
2024/01/17 08:16:48;;;;;;;14.60;11.40;;;-0.80;99.90;;;;;;5092838;28;20464;-76
2024/01/17 08:19:17;;;;;;;11.97;10.73;;;-0.80;99.90;;;;;;5092684;28;20436;-75
2024/01/17 08:21:46;;;;;;;13.47;12.13;;;-0.80;99.90;;;;;;5092736;28;20849;-76
2024/01/17 08:24:16;;;;;;;13.93;11.87;;;-0.80;99.90;;;;;;5094196;28;20459;-76
2024/01/17 08:26:44;;;;;;;19.60;13.20;;;-0.80;99.90;;;;;;5092625;28;20440;-76
2024/01/17 08:29:16;;;;;;;15.40;11.00;;;-0.80;99.90;;;;;;5094054;28;20464;-76
2024/01/17 08:31:45;;;;;;;12.60;10.83;;;-0.80;99.90;;;;;;5092534;28;20475;-76
2024/01/17 08:34:13;;;;;;;14.40;12.80;;;-0.80;99.90;;;;;;5094405;28;20429;-77
2024/01/17 08:36:42;;;;;;;13.43;11.70;;;-0.80;99.90;;;;;;5093058;28;20444;-77
2024/01/17 08:39:11;;;;;;;12.67;11.20;;;-0.80;99.90;;;;;;5092760;28;20436;-77
2024/01/17 08:41:45;;;;;;;12.93;10.50;;;-0.80;99.90;;;;;;5092678;28;20468;-77
2024/01/17 08:44:14;;;;;;;13.40;10.43;;;-0.80;99.90;;;;;;5093831;28;20538;-77
2024/01/17 08:46:44;;;;;;;11.70;10.47;;;-0.70;99.90;;;;;;5093341;28;20452;-77
2024/01/17 08:49:14;;;;;;;12.33;11.03;;;-0.70;99.90;;;;;;5093878;28;20463;-77
2024/01/17 08:51:42;;;;;;;12.03;10.80;;;-0.70;99.90;;;;;;5093424;28;20574;-77
2024/01/17 08:54:11;;;;;;;12.73;11.43;;;-0.70;99.90;;;;;;5093570;28;20516;-77
2024/01/17 08:56:41;;;;;;;12.47;10.10;;;-0.70;99.90;;;;;;5093659;28;20458;-77
2024/01/17 08:59:09;;;;;;;12.57;11.27;;;-0.60;99.90;;;;;;5092735;28;20439;-76
2024/01/17 09:01:38;;;;;;;12.13;10.70;;;-0.60;99.90;;;;;;5093648;28;20455;-77
2024/01/17 09:04:06;;;;;;;10.97;9.40;;;-0.60;99.90;;;;;;5093008;28;20535;-77
2024/01/17 09:06:34;;;;;;;11.00;9.67;;;-0.60;99.90;;;;;;5093944;28;20933;-77
2024/01/17 09:09:04;;;;;;;11.30;10.23;;;-0.60;99.90;;;;;;5091989;28;20491;-77
2024/01/17 09:11:32;;;;;;;10.87;9.77;;;-0.50;99.90;;;;;;5093349;28;20866;-77
2024/01/17 09:14:02;;;;;;;14.17;10.90;;;-0.50;99.90;;;;;;5092056;28;20995;-77
2024/01/17 09:16:31;;;;;;;11.03;9.90;;;-0.50;99.90;;;;;;5092136;28;20444;-77
2024/01/17 09:18:58;;;;;;;12.70;11.50;;;-0.50;99.90;;;;;;5092345;28;20806;-77
2024/01/17 09:21:28;;;;;;;12.60;11.50;;;-0.50;99.90;;;;;;5096555;28;20463;-77
2024/01/17 09:23:57;;;;;;;10.50;9.50;;;-0.50;99.90;;;;;;5097782;28;20448;-77
2024/01/17 09:26:25;;;;;;;12.60;10.93;;;-0.40;99.90;;;;;;5096276;28;20451;-77
2024/01/17 09:28:54;;;;;;;10.30;9.20;;;-0.40;99.90;;;;;;5096346;28;20472;-77
2024/01/17 09:31:23;;;;;;;10.30;9.30;;;-0.40;99.90;;;;;;5097339;28;20448;-77
2024/01/17 09:33:52;;;;;;;11.17;10.03;;;-0.40;99.90;;;;;;5096021;28;20451;-77
2024/01/17 09:36:20;;;;;;;11.20;9.60;;;-0.30;99.90;;;;;;5097253;28;20518;-77
2024/01/17 09:38:49;;;;;;;11.00;9.67;;;-0.30;99.90;;;;;;5097305;28;20432;-77
2024/01/17 09:41:17;;;;;;;11.30;10.20;;;-0.30;99.90;;;;;;5096032;28;20898;-77
2024/01/17 09:43:45;;;;;;;13.50;11.10;;;-0.30;99.90;;;;;;5095895;28;20971;-77
2024/01/17 09:46:14;;;;;;;10.63;9.57;;;-0.20;99.90;;;;;;5096188;28;20872;-77
2024/01/17 09:48:44;;;;;;;10.17;8.60;;;-0.20;99.90;;;;;;5096092;28;20530;-77
2024/01/17 09:51:16;;;;;;;11.00;9.83;;;-0.20;99.90;;;;;;5096003;28;20510;-77
2024/01/17 09:53:47;;;;;;;10.93;9.83;;;-0.20;99.90;;;;;;5095770;28;20472;-77
2024/01/17 09:56:19;;;;;;;9.90;8.90;;;-0.20;99.90;;;;;;5095658;28;20435;-77
2024/01/17 09:58:51;;;;;;;10.47;9.10;;;-0.10;99.90;;;;;;5095576;28;20797;-77
2024/01/17 10:01:22;;;;;;;10.97;9.67;;;-0.10;99.90;;;;;;5095875;28;20464;-77
2024/01/17 10:03:53;;;;;;;12.60;9.93;;;-0.10;99.90;;;;;;5096982;28;20456;-77
2024/01/17 10:06:24;;;;;;;12.17;10.70;;;0.00;99.90;;;;;;5096463;28;20451;-77
2024/01/17 10:08:53;;;;;;;12.13;10.20;;;0.00;99.90;;;;;;5095809;28;20463;-77
2024/01/17 10:11:22;;;;;;;16.37;11.87;;;0.00;99.90;;;;;;5096026;28;20462;-77
2024/01/17 10:13:50;;;;;;;11.27;9.93;;;0.00;99.90;;;;;;5096945;28;20445;-76
2024/01/17 10:16:19;;;;;;;11.70;10.00;;;0.10;99.90;;;;;;5095839;28;20448;-77
2024/01/17 10:18:48;;;;;;;13.40;10.97;;;0.10;99.90;;;;;;5095643;28;20498;-77
2024/01/17 10:21:18;;;;;;;13.47;9.60;;;0.10;99.90;;;;;;5095625;28;20461;-77
2024/01/17 10:23:48;;;;;;;9.63;8.63;;;0.10;99.90;;;;;;5095898;28;20448;-77
2024/01/17 10:26:18;;;;;;;13.47;9.90;;;0.20;99.90;;;;;;5096297;28;20448;-77
2024/01/17 10:28:46;;;;;;;10.57;8.50;;;0.20;99.90;;;;;;5097079;28;20497;-76
2024/01/17 10:31:15;;;;;;;10.97;9.87;;;0.20;99.90;;;;;;5097003;28;20455;-78
2024/01/17 10:33:43;;;;;;;10.53;9.27;;;0.20;99.90;;;;;;5095093;28;20965;-77
2024/01/17 10:36:13;;;;;;;10.77;9.67;;;0.30;99.90;;;;;;5095725;28;20452;-77
2024/01/17 10:38:43;;;;;;;10.43;9.43;;;0.30;99.90;;;;;;5096960;28;20440;-77
2024/01/17 10:41:12;;;;;;;11.73;8.73;;;0.50;99.90;;;;;;5095760;28;20500;-77
2024/01/17 10:43:53;;;;;;;13.67;11.13;;;0.40;99.90;;;;;;5095421;28;20936;-78
2024/01/17 10:46:22;;;;;;;10.70;9.23;;;0.40;99.90;;;;;;5095395;28;21032;-76
2024/01/17 10:48:51;;;;;;;11.67;10.23;;;0.40;99.90;;;;;;5096924;28;20523;-77
2024/01/17 10:51:21;;;;;;;11.03;9.93;;;0.40;99.90;;;;;;5097076;28;20525;-78
2024/01/17 10:53:53;;;;;;;12.93;10.63;;;0.40;99.90;;;;;;5097022;28;20446;-77
2024/01/17 10:56:24;;;;;;;12.23;10.00;;;0.40;99.90;;;;;;5096102;28;20974;-77
2024/01/17 10:58:53;;;;;;;12.23;10.13;;;0.40;99.90;;;;;;5095893;28;20456;-77
2024/01/17 11:01:26;;;;;;;13.60;10.90;;;0.50;99.90;;;;;;5095412;28;20466;-77
2024/01/17 11:03:57;;;;;;;14.23;11.30;;;0.50;99.90;;;;;;5095864;28;20813;-77
2024/01/17 11:06:26;;;;;;;13.27;10.80;;;0.50;99.90;;;;;;5096668;28;20421;-78
2024/01/17 11:08:58;;;;;;;15.60;10.53;;;0.50;99.90;;;;;;5095244;28;20450;-77
2024/01/17 11:11:28;;;;;;;12.97;11.67;;;0.60;99.90;;;;;;5095952;28;20469;-77
2024/01/17 11:13:58;;;;;;;15.53;11.27;;;0.60;99.90;;;;;;5095295;28;20541;-76
2024/01/17 11:16:27;;;;;;;11.57;10.17;;;0.60;99.90;;;;;;5094845;28;20525;-78
2024/01/17 11:18:58;;;;;;;13.37;10.10;;;0.60;99.90;;;;;;5095104;28;20868;-78
2024/01/17 11:21:27;;;;;;;12.17;10.83;;;0.60;99.90;;;;;;5094931;28;20553;-78
2024/01/17 11:24:08;;;;;;;13.47;12.10;;;0.60;99.90;;;;;;5094798;28;20453;-78
2024/01/17 11:26:44;;;;;;;13.17;10.93;;;0.60;99.90;;;;;;5094661;28;20437;-77
2024/01/17 11:29:19;;;;;;;13.23;11.67;;;0.60;99.90;;;;;;5094786;28;20448;-77
2024/01/17 11:31:57;;;;;;;13.50;10.90;;;0.70;99.90;;;;;;5094347;28;20460;-78
2024/01/17 11:34:25;;;;;;;13.63;10.40;;;0.70;99.90;;;;;;5094898;28;20531;-77
2024/01/17 11:36:54;;;;;;;12.43;11.23;;;0.70;99.90;;;;;;5094996;28;20452;-78
2024/01/17 11:39:26;;;;;;;13.07;11.77;;;0.70;99.90;;;;;;5096316;28;20465;-77
2024/01/17 11:41:55;;;;;;;12.80;11.40;;;0.70;99.90;;;;;;5094569;28;20471;-77
2024/01/17 11:44:23;;;;;;;12.63;11.30;;;0.70;99.90;;;;;;5094544;28;20455;-77
2024/01/17 11:46:54;;;;;;;13.27;11.63;;;0.70;99.90;;;;;;5094428;28;20504;-77
2024/01/17 11:49:39;;;;;;;15.93;12.90;;;0.80;99.90;;;;;;5096121;28;20421;-78
2024/01/17 11:52:27;;;;;;;12.43;11.13;;;0.80;99.90;;;;;;5095800;28;20461;-78
2024/01/17 11:54:57;;;;;;;16.13;12.00;;;0.80;99.90;;;;;;5094410;28;20438;-77
2024/01/17 11:57:32;;;;;;;12.27;10.80;;;0.80;99.90;;;;;;5094812;28;20512;-78
2024/01/17 12:00:07;;;;;;;13.10;11.80;;;0.80;99.90;;;;;;5094153;28;20476;-78
2024/01/17 12:02:36;;;;;;;13.90;11.40;;;0.80;99.90;;;;;;5094371;28;20465;-77
2024/01/17 12:05:06;;;;;;;13.50;11.70;;;0.80;99.90;;;;;;5094403;28;20965;-77
2024/01/17 12:07:38;;;;;;;12.67;11.40;;;0.90;99.90;;;;;;5094841;28;20451;-78
2024/01/17 12:10:10;;;;;;;15.00;11.97;;;0.90;99.90;;;;;;5094585;28;20876;-77
2024/01/17 12:12:40;;;;;;;14.33;12.57;;;0.90;99.90;;;;;;5094800;28;20468;-78
2024/01/17 12:15:10;;;;;;;13.30;11.80;;;0.90;99.90;;;;;;5094534;28;20545;-77
2024/01/17 12:17:40;;;;;;;13.17;11.77;;;0.90;99.90;;;;;;5094265;28;20520;-77
2024/01/17 12:20:09;;;;;;;14.20;12.70;;;0.90;99.90;;;;;;5094551;28;20445;-77
2024/01/17 12:22:37;;;;;;;15.20;12.00;;;0.90;99.90;;;;;;5094140;28;20461;-77
2024/01/17 12:25:07;;;;;;;14.40;13.10;;;0.90;99.90;;;;;;5096124;28;20437;-78
2024/01/17 12:27:37;;;;;;;13.40;12.03;;;0.90;99.90;;;;;;5096319;28;20533;-77
2024/01/17 12:30:06;;;;;;;14.40;12.67;;;1.00;99.90;;;;;;5094825;28;20513;-78
2024/01/17 12:32:35;;;;;;;14.30;12.83;;;1.00;99.90;;;;;;5096271;28;20459;-78
2024/01/17 12:35:04;;;;;;;14.70;13.17;;;1.00;99.90;;;;;;5097134;28;20451;-78
2024/01/17 12:37:33;;;;;;;14.43;12.90;;;1.00;99.90;;;;;;5095967;28;20457;-78
2024/01/17 12:40:01;;;;;;;14.23;12.73;;;1.00;99.90;;;;;;5096218;28;20444;-78